Time;durP1;ratioP1;P1;durP2;ratioP2;P2;SDS_P1;SDS_P2;PMS_P1;PMS_P2;Temp;Humidity;BMP_temperature;BMP_pressure;BME280_temperature;BME280_humidity;BME280_pressure;Samples;Min_cycle;Max_cycle;Signal;HPM_P1;HPM_P2
2021/12/29 00:01:08;;;;;;;8.53;1.30;;;10.60;92.00;;;10.96;62.87;97414.19;4952709;28;123238;-87
2021/12/29 00:03:59;;;;;;;3.10;1.40;;;10.60;92.00;;;10.95;62.99;97412.59;4962698;28;123060;-87
2021/12/29 00:10:09;;;;;;;5.67;1.43;;;10.60;92.00;;;10.91;63.08;97434.59;4963150;28;107190;-88
2021/12/29 00:12:41;;;;;;;6.27;2.00;;;10.50;92.00;;;10.92;63.40;97430.66;4958976;28;122125;-87
2021/12/29 00:15:45;;;;;;;5.20;1.80;;;10.50;92.00;;;10.91;62.96;97431.84;4966416;28;121820;-88
2021/12/29 00:21:55;;;;;;;3.90;1.40;;;10.50;92.00;;;10.89;63.55;97444.38;4967524;28;107428;-89
2021/12/29 00:24:41;;;;;;;7.57;2.37;;;10.50;92.00;;;10.90;63.10;97441.25;4963226;28;122622;-88
2021/12/29 00:27:28;;;;;;;2.73;1.00;;;10.50;92.00;;;10.90;63.31;97444.03;4956066;28;123720;-88
2021/12/29 00:29:57;;;;;;;5.80;1.63;;;10.50;92.00;;;10.89;63.31;97447.94;4961480;28;106745;-88
2021/12/29 00:32:23;;;;;;;3.67;1.60;;;11.00;92.20;;;10.90;62.98;97446.00;4963366;28;106504;-89
2021/12/29 00:35:47;;;;;;;5.53;1.80;;;10.60;92.00;;;10.90;63.07;97452.31;4957595;28;123493;-88
2021/12/29 00:39:09;;;;;;;4.60;2.50;;;10.60;91.90;;;10.89;62.75;97467.28;4954966;28;123981;-90
2021/12/29 00:41:38;;;;;;;2.40;1.30;;;10.60;91.90;;;10.85;63.04;97485.69;4961197;28;106569;-88
2021/12/29 00:44:43;;;;;;;2.50;1.30;;;10.50;91.90;;;10.87;62.90;97460.50;4956688;28;106303;-89
2021/12/29 00:47:11;;;;;;;4.20;1.33;;;10.60;91.90;;;10.86;63.40;97484.56;4960680;28;123164;-89
2021/12/29 00:50:16;;;;;;;2.57;1.10;;;10.50;91.90;;;10.88;63.22;97481.44;4958798;28;123343;-88
2021/12/29 00:52:47;;;;;;;3.40;1.40;;;10.60;92.00;;;10.87;63.42;97474.31;4959292;28;106335;-89
2021/12/29 00:55:17;;;;;;;2.20;1.10;;;10.50;92.10;;;10.88;63.67;97496.09;4965895;28;106728;-88
2021/12/29 00:58:22;;;;;;;2.73;1.30;;;10.50;92.10;;;10.88;63.90;97509.91;4944320;28;122555;-89
2021/12/29 01:00:48;;;;;;;6.90;1.40;;;10.50;92.30;;;10.86;64.28;97508.63;4960086;28;123449;-88
2021/12/29 01:03:17;;;;;;;4.70;1.40;;;10.60;92.50;;;10.87;64.54;97505.50;4985087;28;106547;-90
2021/12/29 01:05:47;;;;;;;5.07;1.60;;;10.50;92.50;;;10.88;64.18;97507.13;4997075;28;106452;-89
2021/12/29 01:08:14;;;;;;;1.97;0.90;;;10.50;92.60;;;10.88;64.21;97518.19;4949832;28;122358;-88
2021/12/29 01:11:00;;;;;;;1.83;1.00;;;10.50;92.70;;;10.88;64.57;97533.94;4966057;28;123636;-89
2021/12/29 01:13:48;;;;;;;2.33;1.37;;;10.50;92.60;;;10.85;64.32;97538.19;4957995;28;106426;-88
2021/12/29 01:19:09;;;;;;;2.20;1.10;;;10.50;92.70;;;10.82;64.61;97555.47;4963612;28;124333;-86
2021/12/29 01:21:42;;;;;;;1.77;1.37;;;9.60;92.90;;;10.82;64.45;97567.31;4958130;28;123188;-89
2021/12/29 01:24:10;;;;;;;1.57;1.10;;;10.50;92.80;;;10.86;64.37;97561.13;4962046;28;106894;-88
2021/12/29 01:26:39;;;;;;;3.50;2.03;;;10.50;92.90;;;10.85;64.71;97560.31;4944812;28;106338;-88
2021/12/29 01:29:10;;;;;;;3.70;1.13;;;10.50;92.80;;;10.83;64.66;97576.44;4957228;28;123166;-88
2021/12/29 01:31:57;;;;;;;3.43;1.33;;;10.40;92.90;;;10.83;64.62;97573.69;4961080;28;122946;-88
2021/12/29 01:34:27;;;;;;;1.53;0.90;;;10.50;92.90;;;10.80;64.68;97583.47;4959655;28;108799;-89
2021/12/29 01:36:54;;;;;;;3.47;1.77;;;10.40;92.90;;;10.81;65.18;97592.56;4959517;28;107980;-88
2021/12/29 01:39:22;;;;;;;2.63;1.00;;;10.40;92.90;;;10.80;64.95;97585.41;4959013;28;123471;-88
2021/12/29 01:41:52;;;;;;;1.63;1.00;;;10.40;92.90;;;10.80;65.12;97586.22;4958739;28;122855;-88
2021/12/29 01:44:57;;;;;;;3.60;1.10;;;10.50;93.00;;;10.80;65.05;97596.44;4946209;28;109126;-88
2021/12/29 01:47:32;;;;;;;5.67;1.10;;;10.50;93.00;;;10.82;64.82;97600.47;4958981;28;109388;-88
2021/12/29 01:50:19;;;;;;;2.70;1.07;;;10.50;93.00;;;10.85;65.09;97610.03;4965235;28;123534;-88
2021/12/29 01:53:09;;;;;;;1.93;1.10;;;10.50;93.10;;;10.88;64.78;97611.31;4959423;28;122900;-89
2021/12/29 01:55:40;;;;;;;1.17;1.00;;;10.50;93.10;;;10.89;64.68;97619.28;4960373;28;108483;-89
2021/12/29 01:58:08;;;;;;;2.47;1.07;;;10.50;93.10;;;10.92;64.97;97626.88;4972335;28;108504;-86
2021/12/29 02:01:13;;;;;;;3.03;1.40;;;10.50;93.00;;;10.94;64.56;97640.34;4965015;28;123475;-87
2021/12/29 02:03:42;;;;;;;1.47;0.83;;;10.50;93.00;;;10.93;64.73;97642.28;4962056;28;123219;-88
2021/12/29 02:07:06;;;;;;;1.90;1.10;;;10.60;93.00;;;10.94;64.98;97635.63;4960997;28;108443;-86
2021/12/29 02:09:33;;;;;;;1.57;0.80;;;10.60;93.00;;;10.95;64.49;97647.47;4983503;28;107899;-87
2021/12/29 02:12:37;;;;;;;1.10;1.00;;;10.60;93.00;;;10.98;64.44;97658.66;4981928;28;123188;-87
2021/12/29 02:18:54;;;;;;;3.80;1.13;;;10.60;92.90;;;10.99;64.50;97653.97;4972679;28;108913;-87
2021/12/29 02:22:09;;;;;;;2.80;0.97;;;10.60;92.90;;;10.99;64.17;97654.75;4969472;28;108448;-88
2021/12/29 02:24:42;;;;;;;0.90;0.77;;;10.60;92.90;;;10.96;64.63;97660.97;4949675;28;123452;-87
2021/12/29 02:27:27;;;;;;;3.33;1.07;;;10.60;92.80;;;10.98;63.83;97669.72;4975244;28;123748;-88
2021/12/29 02:29:58;;;;;;;3.10;0.80;;;10.60;92.60;;;10.98;63.97;97672.47;4968167;28;108764;-89
2021/12/29 02:33:21;;;;;;;2.60;1.20;;;10.60;92.60;;;10.96;63.58;97674.78;4967119;28;108067;-88
2021/12/29 02:36:45;;;;;;;2.00;0.90;;;10.60;92.40;;;10.94;62.96;97688.13;4955832;28;123726;-87
2021/12/29 02:39:51;;;;;;;1.30;0.80;;;10.60;92.20;;;10.93;63.05;97688.47;4969478;28;123195;-88
2021/12/29 02:42:23;;;;;;;1.40;0.90;;;10.60;91.90;;;10.93;62.59;97699.53;4967471;28;109489;-87
2021/12/29 02:44:49;;;;;;;2.43;0.90;;;10.50;91.70;;;10.94;62.45;97701.97;4984012;28;108631;-87
2021/12/29 02:47:35;;;;;;;2.00;1.00;;;10.60;91.70;;;10.99;61.91;97720.28;4971789;28;123468;-86
2021/12/29 02:50:03;;;;;;;4.97;1.30;;;10.60;91.50;;;10.99;61.98;97712.78;4973226;28;122965;-88
2021/12/29 02:53:09;;;;;;;1.00;0.90;;;10.60;91.50;;;10.99;61.69;97715.56;4952317;28;108638;-87
2021/12/29 02:56:19;;;;;;;1.90;0.87;;;10.60;91.40;;;11.00;61.63;97719.94;4958377;28;108286;-87
2021/12/29 02:58:45;;;;;;;1.67;1.23;;;10.60;91.40;;;11.01;61.73;97718.75;4969459;28;123094;-87
2021/12/29 03:02:09;;;;;;;3.33;2.03;;;10.60;91.30;;;11.03;61.32;97730.28;4965085;28;122926;-87
2021/12/29 03:04:38;;;;;;;2.60;1.00;;;10.70;91.20;;;11.02;61.55;97731.47;4957793;28;109582;-88
2021/12/29 03:07:44;;;;;;;1.53;1.43;;;10.60;91.20;;;11.06;61.49;97745.38;4972516;28;109346;-87
2021/12/29 03:10:10;;;;;;;1.47;0.90;;;10.70;91.20;;;11.06;61.47;97737.91;4964266;28;123086;-88
2021/12/29 03:13:17;;;;;;;1.10;1.00;;;10.70;91.20;;;11.11;61.19;97763.72;4967910;28;122727;-88
2021/12/29 03:16:21;;;;;;;2.80;1.13;;;10.70;91.10;;;11.11;61.02;97766.50;4964901;28;109295;-87
2021/12/29 03:19:27;;;;;;;1.00;0.83;;;10.70;91.10;;;11.11;61.34;97772.03;4964746;28;108294;-87
2021/12/29 03:21:55;;;;;;;1.37;1.00;;;10.70;91.00;;;11.12;61.38;97768.09;4998755;28;123776;-88
2021/12/29 03:24:22;;;;;;;2.10;0.87;;;10.70;91.00;;;11.12;61.23;97765.31;4968303;28;123225;-88
2021/12/29 03:27:46;;;;;;;1.80;1.33;;;10.70;91.10;;;11.13;61.21;97770.53;4965536;28;108258;-87
2021/12/29 03:30:35;;;;;;;1.90;0.90;;;10.70;91.00;;;11.13;61.24;97750.38;4947233;28;109632;-87
2021/12/29 03:33:03;;;;;;;0.93;0.83;;;10.70;91.00;;;11.11;61.27;97747.13;4961686;28;124599;-87
2021/12/29 03:36:26;;;;;;;1.30;1.00;;;10.70;91.00;;;11.13;61.15;97744.84;4965544;28;123008;-87
2021/12/29 03:38:53;;;;;;;1.20;1.00;;;10.80;91.10;;;11.12;61.44;97755.06;4958902;28;109763;-87
2021/12/29 03:41:22;;;;;;;1.17;0.87;;;10.70;91.00;;;11.12;61.55;97745.97;4973068;28;107790;-87
2021/12/29 03:44:45;;;;;;;2.43;0.97;;;10.70;91.10;;;11.16;61.47;97760.75;4956862;28;122070;-88
2021/12/29 03:47:32;;;;;;;1.40;0.70;;;10.80;91.20;;;11.17;61.42;97765.91;4956063;28;124617;-87
2021/12/29 03:50:19;;;;;;;1.37;1.00;;;10.80;91.20;;;11.20;61.89;97756.97;4966728;28;108888;-87
2021/12/29 03:52:47;;;;;;;0.90;0.80;;;10.80;91.20;;;11.22;61.98;97798.06;4962906;28;108109;-88
2021/12/29 03:55:14;;;;;;;1.90;0.87;;;10.80;91.30;;;11.25;61.91;97767.78;4966426;28;123614;-87
2021/12/29 03:58:00;;;;;;;2.00;0.80;;;10.80;91.30;;;11.27;61.63;97764.69;4968418;28;123618;-87
2021/12/29 04:01:08;;;;;;;1.13;0.90;;;10.90;91.30;;;11.25;61.53;97758.69;4965176;28;108235;-88
2021/12/29 04:04:13;;;;;;;1.40;0.90;;;10.90;91.30;;;11.22;61.99;97775.97;4959506;28;108813;-88
2021/12/29 04:06:40;;;;;;;0.90;0.80;;;10.90;91.40;;;11.22;62.32;97784.25;4950207;28;123912;-86
2021/12/29 04:09:45;;;;;;;1.10;0.80;;;10.90;91.50;;;11.21;62.88;97790.94;4965988;28;123139;-88
2021/12/29 04:16:52;;;;;;;1.33;0.87;;;10.80;91.90;;;11.09;63.97;97805.50;4964859;28;109895;-87
2021/12/29 04:22:10;;;;;;;1.47;1.00;;;10.80;92.60;;;11.00;64.91;97811.13;4964296;28;123818;-88
2021/12/29 04:24:56;;;;;;;1.10;1.00;;;10.70;92.70;;;11.00;64.75;97811.13;4963022;28;108476;-87
2021/12/29 04:27:25;;;;;;;1.67;0.90;;;10.70;92.80;;;10.99;65.23;97826.13;4968317;28;108423;-87
2021/12/29 04:29:52;;;;;;;1.10;1.00;;;10.70;93.00;;;11.01;65.45;97834.06;4968050;28;124942;-88
2021/12/29 04:32:37;;;;;;;1.63;0.90;;;10.70;93.10;;;11.03;64.94;97843.63;4968008;28;123075;-88
2021/12/29 04:35:23;;;;;;;1.23;0.90;;;10.70;93.20;;;11.08;65.28;97856.44;4971031;28;108228;-88
2021/12/29 04:38:29;;;;;;;1.10;0.90;;;10.70;93.20;;;11.13;65.67;97849.91;4965321;28;109588;-87
2021/12/29 04:41:52;;;;;;;2.10;1.03;;;10.70;93.30;;;11.17;65.23;97850.81;4956987;28;123593;-88
2021/12/29 04:44:19;;;;;;;0.80;0.70;;;10.70;93.40;;;11.19;65.82;97846.56;4943714;28;123323;-87
2021/12/29 04:47:08;;;;;;;1.47;0.87;;;10.80;93.50;;;11.26;65.73;97848.78;4964192;28;108532;-88
2021/12/29 04:50:36;;;;;;;0.87;0.77;;;10.80;93.50;;;11.30;65.71;97857.22;4953244;28;107998;-88
2021/12/29 04:53:08;;;;;;;0.80;0.80;;;10.80;93.60;;;11.33;65.74;97864.81;4962845;28;123586;-88
2021/12/29 04:55:38;;;;;;;1.33;0.90;;;10.80;93.60;;;11.33;65.81;97870.34;4963811;28;123239;-87
2021/12/29 04:58:23;;;;;;;2.60;0.80;;;10.90;93.70;;;11.36;65.76;97878.75;4955391;28;107478;-87
2021/12/29 05:01:27;;;;;;;1.30;1.00;;;10.90;93.80;;;11.38;65.69;97875.66;4973263;28;107523;-88
2021/12/29 05:10:21;;;;;;;0.93;0.83;;;10.90;93.90;;;11.37;66.32;97880.41;4981054;28;107782;-88
2021/12/29 05:12:47;;;;;;;1.10;1.00;;;10.90;94.00;;;11.41;66.11;97886.84;4968818;28;107992;-88
2021/12/29 05:19:53;;;;;;;1.40;0.90;;;12.60;94.80;;;11.39;66.09;97905.78;4956740;28;124212;-89
2021/12/29 05:23:17;;;;;;;1.10;1.00;;;10.90;94.10;;;11.36;66.13;97906.41;4963154;28;108447;-88
2021/12/29 05:26:23;;;;;;;1.00;0.90;;;10.90;94.10;;;11.34;66.39;97907.91;4950079;28;108211;-89
2021/12/29 05:32:33;;;;;;;1.17;0.90;;;10.90;94.20;;;11.23;66.71;97897.28;4973872;28;123947;-89
2021/12/29 05:35:02;;;;;;;1.00;0.90;;;10.80;94.20;;;11.18;66.99;97897.50;4975207;28;109473;-87
2021/12/29 05:37:29;;;;;;;2.53;1.00;;;10.80;94.30;;;11.13;66.89;97896.91;4977965;28;110151;-88
2021/12/29 05:39:55;;;;;;;0.80;0.70;;;10.70;94.30;;;11.08;67.03;97899.88;4974179;28;122382;-88
2021/12/29 05:43:19;;;;;;;1.17;0.90;;;10.70;94.40;;;11.01;66.99;97901.19;4972038;28;122960;-88
2021/12/29 05:45:49;;;;;;;1.03;0.93;;;10.70;94.40;;;10.96;67.62;97897.81;4959708;28;108793;-88
2021/12/29 05:48:17;;;;;;;3.63;1.10;;;10.60;94.50;;;10.95;67.44;97915.56;4960645;28;108078;-88
2021/12/29 05:50:45;;;;;;;3.17;1.10;;;10.60;94.50;;;10.94;67.55;97903.69;4947787;28;123299;-88
2021/12/29 05:53:30;;;;;;;2.20;0.97;;;10.60;94.60;;;10.99;67.48;97924.81;4967679;28;123000;-86
2021/12/29 05:55:57;;;;;;;1.87;1.00;;;10.60;94.60;;;11.01;67.88;97928.03;4970187;28;108681;-87
2021/12/29 05:58:23;;;;;;;1.90;0.97;;;10.60;94.70;;;11.02;67.44;97930.47;4972492;28;107850;-85
2021/12/29 06:00:55;;;;;;;1.73;1.10;;;10.60;94.70;;;11.03;67.77;97926.53;4970990;28;123152;-87
2021/12/29 06:03:43;;;;;;;2.03;1.17;;;10.60;94.70;;;11.04;67.62;97928.19;4973094;28;123744;-82
2021/12/29 06:06:10;;;;;;;1.77;1.10;;;10.60;94.70;;;11.05;67.55;97938.09;4965636;28;108845;-88
2021/12/29 06:08:57;;;;;;;1.67;1.40;;;10.60;94.70;;;11.08;67.32;97935.78;4964762;28;108735;-88
2021/12/29 06:15:43;;;;;;;1.93;1.33;;;10.60;94.80;;;11.03;67.37;97942.31;4964824;28;124180;-87
2021/12/29 06:18:12;;;;;;;2.47;1.10;;;10.60;94.70;;;11.02;67.55;97935.19;4960839;28;108784;-89
2021/12/29 06:20:58;;;;;;;3.10;1.20;;;10.60;94.80;;;11.04;67.60;97933.72;4955324;28;108702;-88
2021/12/29 06:23:25;;;;;;;1.37;1.10;;;10.60;94.80;;;11.07;67.63;97937.75;4947339;28;123505;-88
2021/12/29 06:25:53;;;;;;;1.20;1.10;;;10.60;94.80;;;11.12;67.68;97945.03;4976103;28;123386;-89
2021/12/29 06:28:23;;;;;;;2.00;1.10;;;10.70;94.80;;;11.15;67.33;97945.16;4946130;28;109415;-87
2021/12/29 06:31:09;;;;;;;1.70;1.20;;;10.60;94.80;;;11.17;67.57;97945.63;4944743;28;109720;-89
2021/12/29 06:34:34;;;;;;;2.60;1.00;;;10.70;94.80;;;11.17;67.43;97945.63;4953889;28;123671;-89
2021/12/29 06:37:03;;;;;;;1.83;1.10;;;10.70;94.80;;;11.17;67.26;97944.81;4956778;28;123045;-89
2021/12/29 06:39:30;;;;;;;1.17;1.00;;;10.70;94.80;;;11.16;66.87;97946.78;4960376;28;108754;-88
2021/12/29 06:42:17;;;;;;;1.40;1.07;;;10.70;94.70;;;11.19;66.95;97950.81;4950292;28;108227;-88
2021/12/29 06:45:41;;;;;;;1.73;1.20;;;10.70;94.70;;;11.17;67.23;97953.13;4959750;28;122828;-87
2021/12/29 06:48:27;;;;;;;1.20;1.00;;;10.70;94.70;;;11.13;66.95;97953.00;4960985;28;123006;-88
2021/12/29 06:51:16;;;;;;;2.27;1.20;;;10.70;94.70;;;11.11;67.00;97958.03;4961344;28;108885;-88
2021/12/29 06:53:44;;;;;;;1.33;1.00;;;11.60;95.10;;;11.08;67.22;97955.16;4946267;28;108153;-89
2021/12/29 06:56:33;;;;;;;1.87;1.17;;;10.60;94.60;;;11.08;66.85;97960.69;4960512;28;123493;-89
2021/12/29 07:02:44;;;;;;;2.90;1.27;;;10.60;94.60;;;11.00;67.55;97971.44;4957539;28;109539;-88
2021/12/29 07:05:12;;;;;;;1.80;1.27;;;10.60;94.60;;;11.00;67.45;97970.66;4959460;28;108368;-90
2021/12/29 07:08:23;;;;;;;5.43;1.47;;;10.60;94.70;;;11.01;66.93;97992.41;4958805;28;123492;-89
2021/12/29 07:10:50;;;;;;;1.70;1.40;;;10.60;94.70;;;10.99;67.36;97991.94;4990851;28;123409;-88
2021/12/29 07:13:35;;;;;;;1.97;1.10;;;10.70;94.70;;;10.99;67.47;98005.78;4966585;28;107677;-89
2021/12/29 07:16:22;;;;;;;1.97;1.13;;;10.60;94.60;;;10.98;67.41;98009.66;4960313;28;108066;-89
2021/12/29 07:18:49;;;;;;;2.83;1.20;;;10.60;94.70;;;10.93;67.19;98015.38;4965380;28;123020;-89
2021/12/29 07:21:16;;;;;;;1.63;1.20;;;10.50;94.60;;;10.92;67.79;98010.19;4958132;28;123028;-89
2021/12/29 07:23:43;;;;;;;1.70;1.10;;;10.50;94.70;;;10.90;67.43;98027.09;4958923;28;110597;-89
2021/12/29 07:26:10;;;;;;;2.60;1.00;;;10.50;94.70;;;10.89;67.55;98025.50;4964335;28;109101;-89
2021/12/29 07:29:15;;;;;;;2.97;1.20;;;10.50;94.70;;;10.89;67.77;98039.31;4960898;28;123979;-88
2021/12/29 07:32:03;;;;;;;1.83;1.10;;;10.50;94.80;;;10.89;67.79;98041.28;4962438;28;121863;-88
2021/12/29 07:34:30;;;;;;;1.73;1.10;;;10.50;94.80;;;10.88;67.65;98046.00;4959525;28;109121;-88
2021/12/29 07:37:17;;;;;;;3.50;1.53;;;10.50;94.80;;;10.91;67.72;98056.38;4955794;28;108242;-88
2021/12/29 07:40:07;;;;;;;1.53;1.07;;;10.50;94.90;;;10.92;67.83;98049.69;4958097;28;123319;-87
2021/12/29 07:42:38;;;;;;;2.03;1.20;;;10.50;94.90;;;10.91;68.23;98050.03;4961452;28;122116;-88
2021/12/29 07:48:47;;;;;;;3.23;1.20;;;10.50;95.00;;;10.87;68.08;98072.00;4966748;28;108952;-89
2021/12/29 07:51:52;;;;;;;1.23;0.90;;;10.40;95.00;;;10.87;68.45;98076.72;4957888;28;123773;-90
2021/12/29 07:54:38;;;;;;;1.83;1.00;;;10.50;95.10;;;10.87;68.54;98077.53;4949243;28;122846;-88
2021/12/29 07:57:25;;;;;;;1.50;1.10;;;10.50;95.20;;;10.86;67.82;98075.91;4958740;28;107844;-89
2021/12/29 08:00:48;;;;;;;3.73;1.40;;;10.50;95.20;;;10.83;68.29;98077.38;4957796;28;107934;-88
2021/12/29 08:03:52;;;;;;;1.73;0.90;;;10.40;95.20;;;10.80;68.74;98080.81;4959243;28;124428;-89
2021/12/29 08:06:21;;;;;;;2.40;1.00;;;10.40;95.20;;;10.80;68.82;98079.97;4956858;28;122943;-87
2021/12/29 08:09:12;;;;;;;1.20;1.07;;;10.40;95.30;;;10.83;68.56;98088.44;4947291;28;108562;-89
2021/12/29 08:12:35;;;;;;;1.43;1.10;;;10.40;95.40;;;10.86;68.83;98097.22;4976620;28;109714;-90
2021/12/29 08:15:22;;;;;;;1.13;1.00;;;10.40;95.40;;;10.88;69.04;98090.22;4976640;28;124946;-85
2021/12/29 08:18:46;;;;;;;1.90;1.03;;;10.40;95.50;;;10.89;68.58;98083.53;4969111;28;124224;-90
2021/12/29 08:24:58;;;;;;;1.17;1.07;;;10.50;95.60;;;10.92;68.91;98080.09;4973333;28;110350;-91
2021/12/29 08:27:25;;;;;;;1.03;0.93;;;10.40;95.60;;;10.96;69.33;98080.22;4962671;28;123786;-90
2021/12/29 08:30:12;;;;;;;1.50;0.90;;;10.50;95.60;;;11.03;69.02;98092.41;4959143;28;123966;-90
2021/12/29 08:32:39;;;;;;;1.30;1.20;;;10.50;95.70;;;11.08;68.70;98093.38;4945228;28;107692;-90
2021/12/29 08:35:06;;;;;;;1.37;1.20;;;10.50;95.70;;;11.15;68.60;98099.16;4951850;28;108627;-88
2021/12/29 08:37:35;;;;;;;1.67;1.50;;;10.60;95.80;;;11.20;68.62;98102.56;4956163;28;123069;-90
2021/12/29 08:40:07;;;;;;;2.07;1.10;;;10.60;95.80;;;11.24;68.94;98100.75;4954709;28;123536;-89
2021/12/29 08:42:35;;;;;;;1.83;1.33;;;10.70;95.80;;;11.29;68.47;98097.00;4951498;28;109111;-88
2021/12/29 08:45:05;;;;;;;2.17;1.60;;;10.70;96.10;;;11.34;68.46;98102.31;4944687;28;109517;-89
2021/12/29 08:47:32;;;;;;;2.27;1.30;;;10.70;95.90;;;11.41;68.45;98094.28;4939402;28;122382;-87
2021/12/29 08:50:38;;;;;;;3.20;1.53;;;10.80;95.90;;;11.44;68.40;98101.13;4954913;28;124324;-89
2021/12/29 08:53:44;;;;;;;1.97;1.07;;;10.80;95.80;;;11.44;68.17;98106.66;4952722;28;108476;-89
2021/12/29 08:56:16;;;;;;;2.30;1.10;;;10.80;95.70;;;11.45;67.96;98097.22;4956338;28;107047;-88
2021/12/29 08:59:41;;;;;;;1.43;1.00;;;10.90;95.80;;;11.48;67.95;98107.59;4967779;28;124036;-88
2021/12/29 09:02:47;;;;;;;1.67;1.10;;;10.90;95.70;;;11.47;68.04;98101.28;4956501;28;123717;-89
2021/12/29 09:05:34;;;;;;;1.77;1.30;;;10.90;95.60;;;11.48;67.55;98100.13;4954398;28;108731;-88
2021/12/29 09:08:01;;;;;;;1.10;0.93;;;10.90;95.60;;;11.49;68.02;98093.41;4957520;28;107031;-89
2021/12/29 09:10:28;;;;;;;1.30;1.00;;;10.90;95.50;;;11.53;67.69;98090.81;4939366;28;123576;-87
2021/12/29 09:13:15;;;;;;;1.40;1.10;;;10.90;95.50;;;11.57;67.85;98100.03;4950068;28;123979;-89
2021/12/29 09:16:20;;;;;;;1.20;0.93;;;11.00;95.50;;;11.57;67.83;98110.31;4955382;28;109031;-87
2021/12/29 09:19:11;;;;;;;5.10;1.10;;;11.00;95.40;;;11.60;67.36;98115.97;4938095;28;109145;-88
2021/12/29 09:21:43;;;;;;;2.40;1.13;;;11.00;95.40;;;11.62;67.41;98121.19;4951880;28;124258;-88
2021/12/29 09:25:06;;;;;;;1.57;1.30;;;11.00;95.30;;;11.64;67.45;98114.16;4948502;28;123753;-88
2021/12/29 09:27:53;;;;;;;2.33;1.10;;;11.10;95.30;;;11.68;67.19;98114.28;4938073;28;108862;-90
2021/12/29 09:30:43;;;;;;;1.20;1.10;;;11.10;95.30;;;11.68;67.14;98106.00;4957278;28;108987;-88
2021/12/29 09:33:50;;;;;;;1.93;1.30;;;11.10;95.20;;;11.68;67.17;98114.28;4951734;28;124393;-88
2021/12/29 09:36:35;;;;;;;1.67;1.30;;;11.10;95.10;;;11.72;67.11;98112.50;4968661;28;122910;-89
2021/12/29 09:39:21;;;;;;;1.77;1.30;;;11.20;95.10;;;11.73;66.99;98122.41;4951871;28;109415;-87
2021/12/29 09:42:08;;;;;;;1.20;0.90;;;11.20;95.10;;;11.74;67.27;98124.03;4945857;28;107993;-88
2021/12/29 09:45:15;;;;;;;1.07;0.97;;;11.20;95.10;;;11.77;66.59;98139.13;4961556;28;122793;-89
2021/12/29 09:48:20;;;;;;;1.43;1.20;;;11.20;95.00;;;11.79;66.98;98134.88;4946509;28;123764;-90
2021/12/29 09:50:51;;;;;;;3.00;1.60;;;11.20;95.00;;;11.82;66.41;98138.94;4959418;28;108563;-89
2021/12/29 09:53:23;;;;;;;1.03;0.90;;;11.20;95.00;;;11.84;66.58;98131.91;4969359;28;108229;-89
2021/12/29 09:56:10;;;;;;;1.73;1.30;;;11.30;94.90;;;11.87;66.50;98136.81;4956640;28;124284;-88
2021/12/29 09:59:14;;;;;;;1.60;1.10;;;11.30;94.90;;;11.88;66.31;98143.19;4956574;28;122801;-88
2021/12/29 10:01:41;;;;;;;2.40;1.50;;;11.30;94.80;;;11.89;66.15;98144.78;4957133;28;107655;-87
2021/12/29 10:04:10;;;;;;;2.00;1.00;;;11.40;94.80;;;11.93;66.16;98140.22;4955154;28;108207;-89
2021/12/29 10:06:40;;;;;;;1.97;1.10;;;11.40;94.70;;;11.98;66.32;98141.94;4955846;28;123317;-90
2021/12/29 10:10:04;;;;;;;2.40;1.50;;;11.40;94.70;;;12.03;66.02;98138.97;4963851;28;124412;-90
2021/12/29 10:12:42;;;;;;;1.60;1.00;;;11.50;94.70;;;12.05;65.80;98131.94;4954912;28;109766;-91
2021/12/29 10:15:32;;;;;;;2.67;1.30;;;11.50;94.60;;;12.07;65.85;98121.34;4959411;28;109498;-89
2021/12/29 10:18:22;;;;;;;1.83;1.20;;;11.50;94.60;;;12.09;65.94;98124.59;4962736;28;124543;-89
2021/12/29 10:21:00;;;;;;;2.23;1.40;;;11.50;94.50;;;12.13;65.85;98116.41;4960651;28;123176;-89
2021/12/29 10:23:34;;;;;;;1.20;1.00;;;11.50;94.50;;;12.15;65.39;98116.88;4965202;28;108465;-91
2021/12/29 10:26:25;;;;;;;1.57;1.20;;;11.60;94.50;;;12.17;65.72;98117.38;4963860;28;108696;-89
2021/12/29 10:29:02;;;;;;;1.70;1.43;;;11.60;94.40;;;12.20;65.50;98115.84;4955627;28;123372;-88
2021/12/29 10:31:49;;;;;;;2.70;1.20;;;11.60;94.40;;;12.22;65.25;98119.91;4999733;28;122814;-91
2021/12/29 10:35:13;;;;;;;2.93;1.53;;;11.60;94.30;;;12.23;65.20;98115.19;4997627;28;107292;-88
2021/12/29 10:38:20;;;;;;;3.13;1.23;;;11.70;94.30;;;12.24;65.36;98114.03;5000920;28;108760;-88
2021/12/29 10:40:50;;;;;;;1.40;1.23;;;11.70;94.30;;;12.26;65.11;98107.00;4978608;28;123994;-88
2021/12/29 10:43:18;;;;;;;1.93;1.33;;;11.70;94.30;;;12.31;65.11;98104.03;4998060;28;122889;-89
2021/12/29 10:46:22;;;;;;;2.03;1.30;;;12.30;94.50;;;12.31;65.07;98101.25;4990775;28;107793;-90
2021/12/29 10:49:27;;;;;;;2.20;1.40;;;11.70;94.10;;;12.29;64.88;98106.31;4993722;28;109005;-90
2021/12/29 10:55:36;;;;;;;2.77;1.30;;;11.80;94.10;;;12.33;64.80;98109.22;5000791;28;123964;-90
2021/12/29 10:58:17;;;;;;;1.47;1.10;;;11.80;94.10;;;12.37;64.88;98101.84;4996214;28;107638;-89
2021/12/29 11:00:56;;;;;;;2.23;1.40;;;11.80;94.00;;;12.41;64.77;98099.19;4975714;28;108587;-90
2021/12/29 11:03:25;;;;;;;1.90;1.13;;;11.90;94.00;;;12.43;64.36;98107.97;4961582;28;122847;-88
2021/12/29 11:06:00;;;;;;;3.43;1.73;;;11.80;93.90;;;12.46;64.30;98112.84;4938571;28;123322;-89
2021/12/29 11:09:05;;;;;;;2.57;1.50;;;11.90;93.90;;;12.43;64.32;98103.25;4958064;28;110324;-88
2021/12/29 11:11:52;;;;;;;3.80;1.50;;;11.90;93.70;;;12.44;63.96;98109.59;4950631;28;108917;-90
2021/12/29 11:14:32;;;;;;;2.03;1.40;;;11.90;93.60;;;12.46;64.15;98104.53;4957587;28;122332;-88
2021/12/29 11:17:21;;;;;;;2.70;1.70;;;11.90;93.60;;;12.47;63.84;98103.38;4939192;28;123502;-89
2021/12/29 11:19:57;;;;;;;2.80;1.50;;;11.90;93.50;;;12.48;63.86;98096.69;4935713;28;109036;-90
2021/12/29 11:22:29;;;;;;;1.60;1.40;;;11.90;93.40;;;12.48;63.83;98100.25;4928377;28;107137;-88
2021/12/29 11:25:03;;;;;;;1.63;1.30;;;12.00;93.40;;;12.50;63.83;98103.50;4936273;28;123613;-88
2021/12/29 11:27:35;;;;;;;2.10;1.50;;;12.00;93.40;;;12.52;63.74;98086.53;4918654;28;122771;-89
2021/12/29 11:30:08;;;;;;;1.80;1.23;;;12.00;93.40;;;12.52;63.57;98092.06;4919625;28;108778;-88
2021/12/29 11:32:45;;;;;;;4.00;1.63;;;12.00;93.30;;;12.53;63.43;98086.19;4935307;28;108654;-89
2021/12/29 11:35:23;;;;;;;2.07;1.30;;;12.00;93.30;;;12.55;63.37;98089.44;4936941;28;124082;-90
2021/12/29 11:37:57;;;;;;;6.53;1.67;;;12.00;93.30;;;12.56;63.43;98079.16;4939264;28;123933;-89
2021/12/29 11:41:20;;;;;;;1.67;1.40;;;12.00;93.20;;;12.56;63.29;98079.16;4936146;28;109181;-89
2021/12/29 11:43:51;;;;;;;2.17;1.83;;;12.00;93.20;;;12.56;63.57;98084.69;4935805;28;108277;-89
2021/12/29 11:46:23;;;;;;;3.00;1.30;;;12.00;93.20;;;12.57;63.44;98091.84;4932555;28;123285;-89
2021/12/29 11:48:54;;;;;;;1.93;1.30;;;12.00;93.20;;;12.57;63.03;98089.06;4940076;28;124312;-89
2021/12/29 11:51:36;;;;;;;1.87;1.23;;;12.10;93.10;;;12.57;62.99;98083.53;4937590;28;108972;-89
2021/12/29 11:54:17;;;;;;;2.47;1.30;;;12.10;93.10;;;12.56;63.15;98079.16;4946827;28;108813;-89
2021/12/29 11:56:43;;;;;;;2.00;1.40;;;12.10;93.00;;;12.56;62.96;98093.00;4928614;28;124197;-88
2021/12/29 11:59:31;;;;;;;2.57;1.03;;;12.10;93.00;;;12.56;62.86;98095.78;4921996;28;124140;-87
2021/12/29 12:02:02;;;;;;;2.10;1.40;;;12.10;92.90;;;12.53;63.00;98094.50;4937837;28;110328;-88
2021/12/29 12:04:31;;;;;;;3.53;1.30;;;12.10;92.90;;;12.52;62.89;98094.84;4936646;28;109752;-89
2021/12/29 12:07:12;;;;;;;2.57;1.77;;;12.10;92.90;;;12.52;62.57;98100.38;4945059;28;124718;-89
2021/12/29 12:09:48;;;;;;;3.10;1.50;;;12.00;92.70;;;12.52;62.79;98103.97;4955061;28;123140;-89
2021/12/29 12:12:16;;;;;;;2.60;1.40;;;12.00;92.80;;;12.49;62.96;98095.53;4957432;28;109205;-89
2021/12/29 12:15:32;;;;;;;2.13;1.23;;;12.10;92.70;;;12.47;62.95;98082.03;4956802;28;109004;-90
2021/12/29 12:18:07;;;;;;;2.27;1.50;;;12.00;92.70;;;12.49;62.88;98081.66;4954871;28;124533;-87